sensor_id;sensor_type;location;lat;lon;timestamp;P1;durP1;ratioP1;P2;durP2;ratioP2
14040;SDS011;7095;51.388;6.196;2023-10-08T00:01:10;11.37;;;6.00;;
14040;SDS011;7095;51.388;6.196;2023-10-08T00:03:41;12.00;;;5.77;;
14040;SDS011;7095;51.388;6.196;2023-10-08T00:06:18;13.50;;;5.60;;
14040;SDS011;7095;51.388;6.196;2023-10-08T00:08:49;14.60;;;6.40;;
14040;SDS011;7095;51.388;6.196;2023-10-08T00:11:18;10.17;;;5.60;;
14040;SDS011;7095;51.388;6.196;2023-10-08T00:13:49;13.13;;;6.23;;
14040;SDS011;7095;51.388;6.196;2023-10-08T00:16:22;12.77;;;6.57;;
14040;SDS011;7095;51.388;6.196;2023-10-08T00:18:53;17.93;;;6.60;;
14040;SDS011;7095;51.388;6.196;2023-10-08T00:21:28;15.70;;;7.23;;
14040;SDS011;7095;51.388;6.196;2023-10-08T00:24:04;10.87;;;6.10;;
14040;SDS011;7095;51.388;6.196;2023-10-08T00:26:34;11.87;;;6.23;;
14040;SDS011;7095;51.388;6.196;2023-10-08T00:29:08;14.47;;;6.30;;
14040;SDS011;7095;51.388;6.196;2023-10-08T00:31:43;12.30;;;5.97;;
14040;SDS011;7095;51.388;6.196;2023-10-08T00:34:15;10.07;;;5.87;;
14040;SDS011;7095;51.388;6.196;2023-10-08T00:36:48;16.47;;;6.37;;
14040;SDS011;7095;51.388;6.196;2023-10-08T00:39:17;14.70;;;6.13;;
14040;SDS011;7095;51.388;6.196;2023-10-08T00:41:50;11.03;;;6.17;;
14040;SDS011;7095;51.388;6.196;2023-10-08T00:44:25;12.63;;;5.90;;
14040;SDS011;7095;51.388;6.196;2023-10-08T00:46:57;12.17;;;6.43;;
14040;SDS011;7095;51.388;6.196;2023-10-08T00:49:28;17.70;;;6.20;;
14040;SDS011;7095;51.388;6.196;2023-10-08T00:52:16;14.00;;;6.80;;
14040;SDS011;7095;51.388;6.196;2023-10-08T00:54:56;13.03;;;6.50;;
14040;SDS011;7095;51.388;6.196;2023-10-08T00:57:41;14.33;;;6.27;;
14040;SDS011;7095;51.388;6.196;2023-10-08T01:00:15;12.10;;;5.43;;
14040;SDS011;7095;51.388;6.196;2023-10-08T01:02:49;10.87;;;5.97;;
14040;SDS011;7095;51.388;6.196;2023-10-08T01:05:27;12.60;;;6.07;;
14040;SDS011;7095;51.388;6.196;2023-10-08T01:08:16;12.30;;;6.20;;
14040;SDS011;7095;51.388;6.196;2023-10-08T01:11:16;10.80;;;5.90;;
14040;SDS011;7095;51.388;6.196;2023-10-08T01:13:44;12.83;;;6.20;;
14040;SDS011;7095;51.388;6.196;2023-10-08T01:16:13;10.03;;;6.13;;
14040;SDS011;7095;51.388;6.196;2023-10-08T01:18:42;13.63;;;6.03;;
14040;SDS011;7095;51.388;6.196;2023-10-08T01:21:17;11.03;;;6.40;;
14040;SDS011;7095;51.388;6.196;2023-10-08T01:24:03;12.27;;;6.30;;
14040;SDS011;7095;51.388;6.196;2023-10-08T01:26:34;14.57;;;6.03;;
14040;SDS011;7095;51.388;6.196;2023-10-08T01:29:08;11.37;;;5.60;;
14040;SDS011;7095;51.388;6.196;2023-10-08T01:31:46;12.43;;;6.60;;
14040;SDS011;7095;51.388;6.196;2023-10-08T01:34:17;12.60;;;5.57;;
14040;SDS011;7095;51.388;6.196;2023-10-08T01:36:53;11.67;;;6.10;;
14040;SDS011;7095;51.388;6.196;2023-10-08T01:39:23;15.60;;;6.80;;
14040;SDS011;7095;51.388;6.196;2023-10-08T01:41:53;9.70;;;5.70;;
14040;SDS011;7095;51.388;6.196;2023-10-08T01:44:22;12.20;;;6.60;;
14040;SDS011;7095;51.388;6.196;2023-10-08T01:46:51;10.77;;;5.77;;
14040;SDS011;7095;51.388;6.196;2023-10-08T01:49:20;8.63;;;5.63;;
14040;SDS011;7095;51.388;6.196;2023-10-08T01:51:50;9.30;;;5.83;;
14040;SDS011;7095;51.388;6.196;2023-10-08T01:54:20;10.53;;;6.23;;
14040;SDS011;7095;51.388;6.196;2023-10-08T01:56:53;12.60;;;6.93;;
14040;SDS011;7095;51.388;6.196;2023-10-08T01:59:22;13.50;;;6.30;;
14040;SDS011;7095;51.388;6.196;2023-10-08T02:01:50;10.53;;;5.77;;
14040;SDS011;7095;51.388;6.196;2023-10-08T02:04:22;11.70;;;6.40;;
14040;SDS011;7095;51.388;6.196;2023-10-08T02:06:52;10.70;;;5.77;;
14040;SDS011;7095;51.388;6.196;2023-10-08T02:09:22;7.93;;;5.40;;
14040;SDS011;7095;51.388;6.196;2023-10-08T02:11:53;9.70;;;5.20;;
14040;SDS011;7095;51.388;6.196;2023-10-08T02:14:22;9.87;;;5.87;;
14040;SDS011;7095;51.388;6.196;2023-10-08T02:16:51;8.77;;;5.13;;
14040;SDS011;7095;51.388;6.196;2023-10-08T02:19:23;10.00;;;5.13;;
14040;SDS011;7095;51.388;6.196;2023-10-08T02:21:56;10.03;;;5.50;;
14040;SDS011;7095;51.388;6.196;2023-10-08T02:24:26;11.97;;;5.37;;
14040;SDS011;7095;51.388;6.196;2023-10-08T02:26:57;9.20;;;5.70;;
14040;SDS011;7095;51.388;6.196;2023-10-08T02:29:28;11.20;;;5.60;;
14040;SDS011;7095;51.388;6.196;2023-10-08T02:31:57;9.37;;;5.80;;
14040;SDS011;7095;51.388;6.196;2023-10-08T02:34:26;11.00;;;6.07;;
14040;SDS011;7095;51.388;6.196;2023-10-08T02:36:55;11.23;;;5.80;;
14040;SDS011;7095;51.388;6.196;2023-10-08T02:39:24;12.60;;;5.63;;
14040;SDS011;7095;51.388;6.196;2023-10-08T02:41:54;8.73;;;5.90;;
14040;SDS011;7095;51.388;6.196;2023-10-08T02:44:26;12.37;;;6.27;;
14040;SDS011;7095;51.388;6.196;2023-10-08T02:46:55;13.20;;;5.90;;
14040;SDS011;7095;51.388;6.196;2023-10-08T02:49:24;10.10;;;5.30;;
14040;SDS011;7095;51.388;6.196;2023-10-08T02:51:53;12.93;;;5.97;;
14040;SDS011;7095;51.388;6.196;2023-10-08T02:54:22;11.03;;;6.00;;
14040;SDS011;7095;51.388;6.196;2023-10-08T02:57:00;9.90;;;5.30;;
14040;SDS011;7095;51.388;6.196;2023-10-08T02:59:31;10.97;;;5.37;;
14040;SDS011;7095;51.388;6.196;2023-10-08T03:02:08;21.33;;;5.93;;
14040;SDS011;7095;51.388;6.196;2023-10-08T03:04:42;9.20;;;5.60;;
14040;SDS011;7095;51.388;6.196;2023-10-08T03:07:12;12.77;;;6.00;;
14040;SDS011;7095;51.388;6.196;2023-10-08T03:09:51;13.30;;;5.47;;
14040;SDS011;7095;51.388;6.196;2023-10-08T03:12:32;11.73;;;5.90;;
14040;SDS011;7095;51.388;6.196;2023-10-08T03:15:01;7.93;;;5.40;;
14040;SDS011;7095;51.388;6.196;2023-10-08T03:17:40;9.53;;;4.97;;
14040;SDS011;7095;51.388;6.196;2023-10-08T03:20:16;10.37;;;5.57;;
14040;SDS011;7095;51.388;6.196;2023-10-08T03:23:05;10.20;;;5.90;;
14040;SDS011;7095;51.388;6.196;2023-10-08T03:25:40;9.07;;;5.47;;
14040;SDS011;7095;51.388;6.196;2023-10-08T03:28:14;11.57;;;5.13;;
14040;SDS011;7095;51.388;6.196;2023-10-08T03:30:43;12.93;;;6.03;;
14040;SDS011;7095;51.388;6.196;2023-10-08T03:33:19;10.73;;;5.93;;
14040;SDS011;7095;51.388;6.196;2023-10-08T03:35:51;13.87;;;5.80;;
14040;SDS011;7095;51.388;6.196;2023-10-08T03:38:22;6.60;;;4.80;;
14040;SDS011;7095;51.388;6.196;2023-10-08T03:41:06;9.43;;;5.40;;
14040;SDS011;7095;51.388;6.196;2023-10-08T03:43:44;9.87;;;5.37;;
14040;SDS011;7095;51.388;6.196;2023-10-08T03:46:20;12.10;;;5.67;;
14040;SDS011;7095;51.388;6.196;2023-10-08T03:48:51;14.13;;;6.17;;
14040;SDS011;7095;51.388;6.196;2023-10-08T03:51:21;9.90;;;5.53;;
14040;SDS011;7095;51.388;6.196;2023-10-08T03:53:54;11.77;;;5.57;;
14040;SDS011;7095;51.388;6.196;2023-10-08T03:56:25;12.77;;;5.73;;
14040;SDS011;7095;51.388;6.196;2023-10-08T03:58:58;15.07;;;5.63;;
14040;SDS011;7095;51.388;6.196;2023-10-08T04:01:30;11.57;;;5.90;;
14040;SDS011;7095;51.388;6.196;2023-10-08T04:03:59;10.03;;;5.47;;
14040;SDS011;7095;51.388;6.196;2023-10-08T04:06:28;10.43;;;5.73;;
14040;SDS011;7095;51.388;6.196;2023-10-08T04:09:04;12.67;;;6.00;;
14040;SDS011;7095;51.388;6.196;2023-10-08T04:11:43;11.80;;;6.03;;
14040;SDS011;7095;51.388;6.196;2023-10-08T04:14:26;11.70;;;6.47;;
14040;SDS011;7095;51.388;6.196;2023-10-08T04:16:55;11.70;;;6.17;;
14040;SDS011;7095;51.388;6.196;2023-10-08T04:19:26;11.07;;;5.77;;
14040;SDS011;7095;51.388;6.196;2023-10-08T04:21:54;9.93;;;5.30;;
14040;SDS011;7095;51.388;6.196;2023-10-08T04:24:23;15.23;;;6.13;;
14040;SDS011;7095;51.388;6.196;2023-10-08T04:27:01;11.30;;;5.80;;
14040;SDS011;7095;51.388;6.196;2023-10-08T04:29:37;11.60;;;5.60;;
14040;SDS011;7095;51.388;6.196;2023-10-08T04:32:09;13.23;;;5.93;;
14040;SDS011;7095;51.388;6.196;2023-10-08T04:34:39;11.60;;;6.23;;
14040;SDS011;7095;51.388;6.196;2023-10-08T04:37:13;11.80;;;5.90;;
14040;SDS011;7095;51.388;6.196;2023-10-08T04:39:47;10.70;;;5.90;;
14040;SDS011;7095;51.388;6.196;2023-10-08T04:42:24;14.87;;;6.50;;
14040;SDS011;7095;51.388;6.196;2023-10-08T04:44:55;8.17;;;5.97;;
14040;SDS011;7095;51.388;6.196;2023-10-08T04:47:25;10.73;;;6.30;;
14040;SDS011;7095;51.388;6.196;2023-10-08T04:50:02;14.53;;;5.83;;
14040;SDS011;7095;51.388;6.196;2023-10-08T04:52:32;11.43;;;6.77;;
14040;SDS011;7095;51.388;6.196;2023-10-08T04:55:12;9.77;;;5.30;;
14040;SDS011;7095;51.388;6.196;2023-10-08T04:57:47;8.47;;;5.57;;
14040;SDS011;7095;51.388;6.196;2023-10-08T05:00:18;8.53;;;5.10;;
14040;SDS011;7095;51.388;6.196;2023-10-08T05:03:07;14.00;;;6.23;;
14040;SDS011;7095;51.388;6.196;2023-10-08T05:05:41;9.80;;;5.60;;
14040;SDS011;7095;51.388;6.196;2023-10-08T05:08:33;9.47;;;5.33;;
14040;SDS011;7095;51.388;6.196;2023-10-08T05:11:14;15.33;;;5.90;;
14040;SDS011;7095;51.388;6.196;2023-10-08T05:13:51;12.70;;;5.60;;
14040;SDS011;7095;51.388;6.196;2023-10-08T05:16:35;10.53;;;6.10;;
14040;SDS011;7095;51.388;6.196;2023-10-08T05:19:27;10.23;;;5.67;;
14040;SDS011;7095;51.388;6.196;2023-10-08T05:22:13;13.93;;;6.27;;
14040;SDS011;7095;51.388;6.196;2023-10-08T05:25:10;9.97;;;5.97;;
14040;SDS011;7095;51.388;6.196;2023-10-08T05:27:52;9.70;;;5.87;;
14040;SDS011;7095;51.388;6.196;2023-10-08T05:30:25;9.23;;;5.77;;
14040;SDS011;7095;51.388;6.196;2023-10-08T05:33:06;14.30;;;5.60;;
14040;SDS011;7095;51.388;6.196;2023-10-08T05:35:52;10.73;;;5.70;;
14040;SDS011;7095;51.388;6.196;2023-10-08T05:38:23;13.20;;;6.20;;
14040;SDS011;7095;51.388;6.196;2023-10-08T05:41:15;14.00;;;6.07;;
14040;SDS011;7095;51.388;6.196;2023-10-08T05:44:00;8.50;;;6.23;;
14040;SDS011;7095;51.388;6.196;2023-10-08T05:47:05;11.27;;;5.50;;
14040;SDS011;7095;51.388;6.196;2023-10-08T05:49:50;13.33;;;6.60;;
14040;SDS011;7095;51.388;6.196;2023-10-08T05:52:42;13.97;;;6.20;;
14040;SDS011;7095;51.388;6.196;2023-10-08T05:55:18;12.20;;;6.53;;
14040;SDS011;7095;51.388;6.196;2023-10-08T05:57:53;13.47;;;6.30;;
14040;SDS011;7095;51.388;6.196;2023-10-08T06:00:40;9.93;;;5.50;;
14040;SDS011;7095;51.388;6.196;2023-10-08T06:03:42;10.47;;;5.77;;
14040;SDS011;7095;51.388;6.196;2023-10-08T06:06:27;11.37;;;6.03;;
14040;SDS011;7095;51.388;6.196;2023-10-08T06:09:04;16.17;;;6.10;;
14040;SDS011;7095;51.388;6.196;2023-10-08T06:11:48;9.33;;;5.63;;
14040;SDS011;7095;51.388;6.196;2023-10-08T06:14:34;13.83;;;6.23;;
14040;SDS011;7095;51.388;6.196;2023-10-08T06:17:21;13.00;;;6.13;;
14040;SDS011;7095;51.388;6.196;2023-10-08T06:20:26;13.03;;;6.63;;
14040;SDS011;7095;51.388;6.196;2023-10-08T06:22:54;11.20;;;6.20;;
14040;SDS011;7095;51.388;6.196;2023-10-08T06:25:33;14.43;;;7.07;;
14040;SDS011;7095;51.388;6.196;2023-10-08T06:28:12;13.77;;;6.10;;
14040;SDS011;7095;51.388;6.196;2023-10-08T06:30:42;13.23;;;6.77;;
14040;SDS011;7095;51.388;6.196;2023-10-08T06:33:13;11.90;;;6.83;;
14040;SDS011;7095;51.388;6.196;2023-10-08T06:35:45;34.87;;;6.60;;
14040;SDS011;7095;51.388;6.196;2023-10-08T06:38:28;13.30;;;6.33;;
14040;SDS011;7095;51.388;6.196;2023-10-08T06:40:58;14.20;;;6.33;;
14040;SDS011;7095;51.388;6.196;2023-10-08T06:43:27;14.33;;;6.20;;
14040;SDS011;7095;51.388;6.196;2023-10-08T06:45:56;10.93;;;6.50;;
14040;SDS011;7095;51.388;6.196;2023-10-08T06:48:25;12.00;;;6.43;;
14040;SDS011;7095;51.388;6.196;2023-10-08T06:50:57;13.20;;;6.73;;
14040;SDS011;7095;51.388;6.196;2023-10-08T06:53:34;11.57;;;6.10;;
14040;SDS011;7095;51.388;6.196;2023-10-08T06:56:05;15.70;;;7.40;;
14040;SDS011;7095;51.388;6.196;2023-10-08T06:58:38;11.57;;;6.47;;
14040;SDS011;7095;51.388;6.196;2023-10-08T07:01:09;15.33;;;6.70;;
14040;SDS011;7095;51.388;6.196;2023-10-08T07:03:40;14.80;;;6.97;;
14040;SDS011;7095;51.388;6.196;2023-10-08T07:06:10;11.70;;;6.67;;
14040;SDS011;7095;51.388;6.196;2023-10-08T07:08:52;11.00;;;7.37;;
14040;SDS011;7095;51.388;6.196;2023-10-08T07:11:22;14.80;;;7.23;;
14040;SDS011;7095;51.388;6.196;2023-10-08T07:13:52;12.77;;;7.37;;
14040;SDS011;7095;51.388;6.196;2023-10-08T07:16:21;13.23;;;7.40;;
14040;SDS011;7095;51.388;6.196;2023-10-08T07:18:50;11.80;;;6.70;;
14040;SDS011;7095;51.388;6.196;2023-10-08T07:21:21;14.73;;;6.97;;
14040;SDS011;7095;51.388;6.196;2023-10-08T07:23:56;14.13;;;6.53;;
14040;SDS011;7095;51.388;6.196;2023-10-08T07:26:26;14.07;;;7.30;;
14040;SDS011;7095;51.388;6.196;2023-10-08T07:29:04;12.13;;;6.83;;
14040;SDS011;7095;51.388;6.196;2023-10-08T07:31:36;12.07;;;7.00;;
14040;SDS011;7095;51.388;6.196;2023-10-08T07:34:08;10.17;;;6.93;;
14040;SDS011;7095;51.388;6.196;2023-10-08T07:36:46;15.10;;;7.80;;
14040;SDS011;7095;51.388;6.196;2023-10-08T07:39:18;12.50;;;6.57;;
14040;SDS011;7095;51.388;6.196;2023-10-08T07:41:53;20.07;;;8.10;;
14040;SDS011;7095;51.388;6.196;2023-10-08T07:44:22;14.47;;;7.03;;
14040;SDS011;7095;51.388;6.196;2023-10-08T07:46:52;15.27;;;7.30;;
14040;SDS011;7095;51.388;6.196;2023-10-08T07:49:21;13.27;;;7.67;;
14040;SDS011;7095;51.388;6.196;2023-10-08T07:51:53;12.33;;;7.63;;
14040;SDS011;7095;51.388;6.196;2023-10-08T07:54:22;10.17;;;7.23;;
14040;SDS011;7095;51.388;6.196;2023-10-08T07:56:54;16.00;;;7.83;;
14040;SDS011;7095;51.388;6.196;2023-10-08T07:59:27;12.80;;;7.07;;
14040;SDS011;7095;51.388;6.196;2023-10-08T08:01:55;13.93;;;7.20;;
14040;SDS011;7095;51.388;6.196;2023-10-08T08:04:24;12.77;;;7.93;;
14040;SDS011;7095;51.388;6.196;2023-10-08T08:07:01;16.73;;;7.93;;
14040;SDS011;7095;51.388;6.196;2023-10-08T08:09:31;16.73;;;7.73;;
14040;SDS011;7095;51.388;6.196;2023-10-08T08:12:05;18.40;;;8.57;;
14040;SDS011;7095;51.388;6.196;2023-10-08T08:14:38;17.80;;;7.83;;
14040;SDS011;7095;51.388;6.196;2023-10-08T08:17:08;13.07;;;7.27;;
14040;SDS011;7095;51.388;6.196;2023-10-08T08:19:41;14.80;;;7.27;;
14040;SDS011;7095;51.388;6.196;2023-10-08T08:22:12;18.33;;;7.80;;
14040;SDS011;7095;51.388;6.196;2023-10-08T08:24:48;16.10;;;7.67;;
14040;SDS011;7095;51.388;6.196;2023-10-08T08:27:24;20.53;;;9.13;;
14040;SDS011;7095;51.388;6.196;2023-10-08T08:29:59;18.27;;;8.40;;
14040;SDS011;7095;51.388;6.196;2023-10-08T08:32:37;14.77;;;8.13;;
14040;SDS011;7095;51.388;6.196;2023-10-08T08:35:07;18.13;;;8.57;;
14040;SDS011;7095;51.388;6.196;2023-10-08T08:37:38;18.80;;;8.93;;
14040;SDS011;7095;51.388;6.196;2023-10-08T08:40:07;18.30;;;8.60;;
14040;SDS011;7095;51.388;6.196;2023-10-08T08:42:45;19.47;;;9.43;;
14040;SDS011;7095;51.388;6.196;2023-10-08T08:45:15;15.83;;;9.10;;
14040;SDS011;7095;51.388;6.196;2023-10-08T08:47:47;15.93;;;9.17;;
14040;SDS011;7095;51.388;6.196;2023-10-08T08:50:17;27.20;;;10.97;;
14040;SDS011;7095;51.388;6.196;2023-10-08T08:52:47;23.50;;;11.13;;
14040;SDS011;7095;51.388;6.196;2023-10-08T08:55:16;24.10;;;11.60;;
14040;SDS011;7095;51.388;6.196;2023-10-08T08:57:45;22.63;;;11.90;;
14040;SDS011;7095;51.388;6.196;2023-10-08T09:00:16;32.40;;;13.43;;
14040;SDS011;7095;51.388;6.196;2023-10-08T09:02:46;23.33;;;13.83;;
14040;SDS011;7095;51.388;6.196;2023-10-08T09:05:17;21.87;;;11.67;;
14040;SDS011;7095;51.388;6.196;2023-10-08T09:07:56;25.10;;;13.10;;
14040;SDS011;7095;51.388;6.196;2023-10-08T09:10:26;28.03;;;13.73;;
14040;SDS011;7095;51.388;6.196;2023-10-08T09:12:56;24.97;;;13.77;;
14040;SDS011;7095;51.388;6.196;2023-10-08T09:15:26;22.77;;;13.10;;
14040;SDS011;7095;51.388;6.196;2023-10-08T09:17:55;26.43;;;12.60;;
14040;SDS011;7095;51.388;6.196;2023-10-08T09:20:28;23.43;;;13.00;;
14040;SDS011;7095;51.388;6.196;2023-10-08T09:23:07;28.73;;;13.73;;
14040;SDS011;7095;51.388;6.196;2023-10-08T09:25:39;23.97;;;13.60;;
14040;SDS011;7095;51.388;6.196;2023-10-08T09:28:08;24.37;;;13.20;;
14040;SDS011;7095;51.388;6.196;2023-10-08T09:30:40;27.33;;;12.93;;
14040;SDS011;7095;51.388;6.196;2023-10-08T09:33:13;25.33;;;12.93;;
14040;SDS011;7095;51.388;6.196;2023-10-08T09:35:42;31.13;;;13.67;;
14040;SDS011;7095;51.388;6.196;2023-10-08T09:38:13;21.27;;;12.20;;
14040;SDS011;7095;51.388;6.196;2023-10-08T09:40:50;24.50;;;12.77;;
14040;SDS011;7095;51.388;6.196;2023-10-08T09:43:21;24.23;;;13.43;;
14040;SDS011;7095;51.388;6.196;2023-10-08T09:45:51;26.10;;;13.23;;
14040;SDS011;7095;51.388;6.196;2023-10-08T09:48:24;23.20;;;13.67;;
14040;SDS011;7095;51.388;6.196;2023-10-08T09:50:57;30.60;;;14.07;;
14040;SDS011;7095;51.388;6.196;2023-10-08T09:53:31;20.33;;;13.03;;
14040;SDS011;7095;51.388;6.196;2023-10-08T09:56:11;24.63;;;13.50;;
14040;SDS011;7095;51.388;6.196;2023-10-08T09:58:42;27.10;;;13.93;;
14040;SDS011;7095;51.388;6.196;2023-10-08T10:01:13;24.57;;;14.20;;
14040;SDS011;7095;51.388;6.196;2023-10-08T10:03:43;30.93;;;13.50;;
14040;SDS011;7095;51.388;6.196;2023-10-08T10:06:14;25.23;;;12.90;;
14040;SDS011;7095;51.388;6.196;2023-10-08T10:08:45;32.10;;;13.47;;
14040;SDS011;7095;51.388;6.196;2023-10-08T10:11:16;30.70;;;13.23;;
14040;SDS011;7095;51.388;6.196;2023-10-08T10:13:45;28.73;;;13.13;;
14040;SDS011;7095;51.388;6.196;2023-10-08T10:16:21;29.23;;;13.03;;
14040;SDS011;7095;51.388;6.196;2023-10-08T10:18:50;27.97;;;12.10;;
14040;SDS011;7095;51.388;6.196;2023-10-08T10:21:25;26.73;;;11.30;;
14040;SDS011;7095;51.388;6.196;2023-10-08T10:23:58;25.47;;;13.13;;
14040;SDS011;7095;51.388;6.196;2023-10-08T10:26:27;21.37;;;12.47;;
14040;SDS011;7095;51.388;6.196;2023-10-08T10:31:49;25.53;;;12.13;;
14040;SDS011;7095;51.388;6.196;2023-10-08T10:34:21;25.27;;;13.50;;
14040;SDS011;7095;51.388;6.196;2023-10-08T10:36:55;25.87;;;12.23;;
14040;SDS011;7095;51.388;6.196;2023-10-08T10:39:31;23.93;;;12.70;;
14040;SDS011;7095;51.388;6.196;2023-10-08T10:42:01;25.27;;;13.73;;
14040;SDS011;7095;51.388;6.196;2023-10-08T10:44:33;21.43;;;13.07;;
14040;SDS011;7095;51.388;6.196;2023-10-08T10:47:04;25.43;;;12.70;;
14040;SDS011;7095;51.388;6.196;2023-10-08T10:49:54;23.03;;;13.23;;
14040;SDS011;7095;51.388;6.196;2023-10-08T10:52:43;19.53;;;13.27;;
14040;SDS011;7095;51.388;6.196;2023-10-08T10:55:20;22.57;;;13.90;;
14040;SDS011;7095;51.388;6.196;2023-10-08T10:57:59;31.40;;;14.93;;
14040;SDS011;7095;51.388;6.196;2023-10-08T11:00:41;27.70;;;15.70;;
14040;SDS011;7095;51.388;6.196;2023-10-08T11:03:23;28.47;;;14.97;;
14040;SDS011;7095;51.388;6.196;2023-10-08T11:05:54;24.23;;;14.73;;
14040;SDS011;7095;51.388;6.196;2023-10-08T11:08:27;25.87;;;14.77;;
14040;SDS011;7095;51.388;6.196;2023-10-08T11:11:04;25.87;;;14.87;;
14040;SDS011;7095;51.388;6.196;2023-10-08T11:13:36;29.90;;;15.67;;
14040;SDS011;7095;51.388;6.196;2023-10-08T11:16:06;27.30;;;16.17;;
14040;SDS011;7095;51.388;6.196;2023-10-08T11:18:44;27.23;;;15.93;;
14040;SDS011;7095;51.388;6.196;2023-10-08T11:21:17;31.87;;;15.13;;
14040;SDS011;7095;51.388;6.196;2023-10-08T11:23:51;26.57;;;14.77;;
14040;SDS011;7095;51.388;6.196;2023-10-08T11:26:24;25.70;;;14.00;;
14040;SDS011;7095;51.388;6.196;2023-10-08T11:29:00;20.23;;;13.47;;
14040;SDS011;7095;51.388;6.196;2023-10-08T11:31:31;30.67;;;12.60;;
14040;SDS011;7095;51.388;6.196;2023-10-08T11:34:02;21.73;;;12.90;;
14040;SDS011;7095;51.388;6.196;2023-10-08T11:36:36;18.77;;;11.10;;
14040;SDS011;7095;51.388;6.196;2023-10-08T11:39:16;18.10;;;11.50;;
14040;SDS011;7095;51.388;6.196;2023-10-08T11:41:59;20.67;;;11.70;;
14040;SDS011;7095;51.388;6.196;2023-10-08T11:44:33;24.67;;;11.53;;
14040;SDS011;7095;51.388;6.196;2023-10-08T11:47:04;27.37;;;12.23;;
14040;SDS011;7095;51.388;6.196;2023-10-08T11:49:39;21.87;;;11.60;;
14040;SDS011;7095;51.388;6.196;2023-10-08T11:52:15;20.37;;;10.67;;
14040;SDS011;7095;51.388;6.196;2023-10-08T11:54:43;26.63;;;11.47;;
14040;SDS011;7095;51.388;6.196;2023-10-08T11:57:16;23.63;;;10.73;;
14040;SDS011;7095;51.388;6.196;2023-10-08T11:59:49;26.23;;;11.60;;
14040;SDS011;7095;51.388;6.196;2023-10-08T12:02:22;21.33;;;12.63;;
14040;SDS011;7095;51.388;6.196;2023-10-08T12:04:51;20.87;;;11.73;;
14040;SDS011;7095;51.388;6.196;2023-10-08T12:07:22;21.93;;;11.77;;
14040;SDS011;7095;51.388;6.196;2023-10-08T12:09:55;23.07;;;11.83;;
14040;SDS011;7095;51.388;6.196;2023-10-08T12:12:24;25.43;;;12.73;;
14040;SDS011;7095;51.388;6.196;2023-10-08T12:14:54;19.23;;;13.03;;
14040;SDS011;7095;51.388;6.196;2023-10-08T12:17:23;21.67;;;14.00;;
14040;SDS011;7095;51.388;6.196;2023-10-08T12:20:06;27.53;;;13.50;;
14040;SDS011;7095;51.388;6.196;2023-10-08T12:22:50;28.20;;;14.93;;
14040;SDS011;7095;51.388;6.196;2023-10-08T12:25:19;27.67;;;15.83;;
14040;SDS011;7095;51.388;6.196;2023-10-08T12:27:49;24.17;;;16.97;;
14040;SDS011;7095;51.388;6.196;2023-10-08T12:30:17;26.10;;;17.93;;
14040;SDS011;7095;51.388;6.196;2023-10-08T12:32:58;36.33;;;19.20;;
14040;SDS011;7095;51.388;6.196;2023-10-08T12:35:28;31.80;;;20.40;;
14040;SDS011;7095;51.388;6.196;2023-10-08T12:37:57;33.73;;;20.73;;
14040;SDS011;7095;51.388;6.196;2023-10-08T12:40:25;38.00;;;20.80;;
14040;SDS011;7095;51.388;6.196;2023-10-08T12:43:10;31.23;;;20.60;;
14040;SDS011;7095;51.388;6.196;2023-10-08T12:45:39;30.97;;;21.63;;
14040;SDS011;7095;51.388;6.196;2023-10-08T12:48:07;30.00;;;20.70;;
14040;SDS011;7095;51.388;6.196;2023-10-08T12:50:36;31.10;;;20.77;;
14040;SDS011;7095;51.388;6.196;2023-10-08T12:53:10;31.57;;;21.73;;
14040;SDS011;7095;51.388;6.196;2023-10-08T12:55:39;33.90;;;21.30;;
14040;SDS011;7095;51.388;6.196;2023-10-08T12:58:08;32.57;;;22.73;;
14040;SDS011;7095;51.388;6.196;2023-10-08T13:00:38;32.00;;;21.87;;
14040;SDS011;7095;51.388;6.196;2023-10-08T13:03:08;33.60;;;23.33;;
14040;SDS011;7095;51.388;6.196;2023-10-08T13:05:42;32.23;;;23.50;;
14040;SDS011;7095;51.388;6.196;2023-10-08T13:08:12;28.00;;;22.23;;
14040;SDS011;7095;51.388;6.196;2023-10-08T13:10:40;34.40;;;22.40;;
14040;SDS011;7095;51.388;6.196;2023-10-08T13:13:12;34.97;;;22.87;;
14040;SDS011;7095;51.388;6.196;2023-10-08T13:15:41;34.43;;;23.37;;
14040;SDS011;7095;51.388;6.196;2023-10-08T13:18:10;35.53;;;23.43;;
14040;SDS011;7095;51.388;6.196;2023-10-08T13:20:39;33.70;;;23.30;;
14040;SDS011;7095;51.388;6.196;2023-10-08T13:23:11;35.07;;;22.60;;
14040;SDS011;7095;51.388;6.196;2023-10-08T13:25:40;32.17;;;22.73;;
14040;SDS011;7095;51.388;6.196;2023-10-08T13:28:08;34.20;;;22.30;;
14040;SDS011;7095;51.388;6.196;2023-10-08T13:30:40;38.23;;;21.77;;
14040;SDS011;7095;51.388;6.196;2023-10-08T13:33:08;31.57;;;21.03;;
14040;SDS011;7095;51.388;6.196;2023-10-08T13:35:37;29.43;;;20.80;;
14040;SDS011;7095;51.388;6.196;2023-10-08T13:38:06;35.20;;;20.27;;
14040;SDS011;7095;51.388;6.196;2023-10-08T13:40:40;29.87;;;19.00;;
14040;SDS011;7095;51.388;6.196;2023-10-08T13:43:29;33.23;;;19.83;;
14040;SDS011;7095;51.388;6.196;2023-10-08T13:46:04;27.23;;;18.73;;
14040;SDS011;7095;51.388;6.196;2023-10-08T13:48:34;27.97;;;18.83;;
14040;SDS011;7095;51.388;6.196;2023-10-08T13:51:03;35.90;;;19.67;;
14040;SDS011;7095;51.388;6.196;2023-10-08T13:53:40;30.67;;;17.80;;
14040;SDS011;7095;51.388;6.196;2023-10-08T13:56:12;29.40;;;16.83;;
14040;SDS011;7095;51.388;6.196;2023-10-08T13:58:41;32.10;;;17.27;;
14040;SDS011;7095;51.388;6.196;2023-10-08T14:01:14;31.00;;;17.27;;
14040;SDS011;7095;51.388;6.196;2023-10-08T14:03:47;25.13;;;16.70;;
14040;SDS011;7095;51.388;6.196;2023-10-08T14:06:20;29.33;;;16.13;;
14040;SDS011;7095;51.388;6.196;2023-10-08T14:08:49;33.23;;;16.50;;
14040;SDS011;7095;51.388;6.196;2023-10-08T14:11:19;30.20;;;16.10;;
14040;SDS011;7095;51.388;6.196;2023-10-08T14:13:50;22.90;;;15.57;;
14040;SDS011;7095;51.388;6.196;2023-10-08T14:16:21;24.57;;;16.43;;
14040;SDS011;7095;51.388;6.196;2023-10-08T14:18:50;29.77;;;17.33;;
14040;SDS011;7095;51.388;6.196;2023-10-08T14:21:21;21.27;;;16.03;;
14040;SDS011;7095;51.388;6.196;2023-10-08T14:23:51;35.67;;;18.37;;
14040;SDS011;7095;51.388;6.196;2023-10-08T14:26:20;29.73;;;17.23;;
14040;SDS011;7095;51.388;6.196;2023-10-08T14:28:49;34.20;;;17.77;;
14040;SDS011;7095;51.388;6.196;2023-10-08T14:31:25;35.73;;;19.70;;
14040;SDS011;7095;51.388;6.196;2023-10-08T14:33:54;24.17;;;16.43;;
14040;SDS011;7095;51.388;6.196;2023-10-08T14:36:32;31.97;;;17.87;;
14040;SDS011;7095;51.388;6.196;2023-10-08T14:39:18;30.10;;;17.50;;
14040;SDS011;7095;51.388;6.196;2023-10-08T14:42:04;33.83;;;18.40;;
14040;SDS011;7095;51.388;6.196;2023-10-08T14:44:50;27.43;;;17.77;;
14040;SDS011;7095;51.388;6.196;2023-10-08T14:47:20;28.37;;;18.80;;
14040;SDS011;7095;51.388;6.196;2023-10-08T14:49:49;38.37;;;19.47;;
14040;SDS011;7095;51.388;6.196;2023-10-08T14:52:18;32.67;;;18.53;;
14040;SDS011;7095;51.388;6.196;2023-10-08T14:54:46;28.93;;;18.50;;
14040;SDS011;7095;51.388;6.196;2023-10-08T14:57:18;32.47;;;18.90;;
14040;SDS011;7095;51.388;6.196;2023-10-08T14:59:47;29.60;;;20.10;;
14040;SDS011;7095;51.388;6.196;2023-10-08T15:02:15;31.77;;;20.67;;
14040;SDS011;7095;51.388;6.196;2023-10-08T15:04:45;30.73;;;20.07;;
14040;SDS011;7095;51.388;6.196;2023-10-08T15:07:14;33.43;;;20.47;;
14040;SDS011;7095;51.388;6.196;2023-10-08T15:09:45;36.03;;;20.73;;
14040;SDS011;7095;51.388;6.196;2023-10-08T15:12:16;34.07;;;20.67;;
14040;SDS011;7095;51.388;6.196;2023-10-08T15:14:46;37.30;;;21.93;;
14040;SDS011;7095;51.388;6.196;2023-10-08T15:17:17;33.03;;;20.53;;
14040;SDS011;7095;51.388;6.196;2023-10-08T15:19:47;34.03;;;20.30;;
14040;SDS011;7095;51.388;6.196;2023-10-08T15:22:18;36.50;;;20.43;;
14040;SDS011;7095;51.388;6.196;2023-10-08T15:24:46;37.63;;;21.90;;